<?xml version="1.0" encoding="UTF-8" standalone="no" ?>
<gpx xmlns="http://www.topografix.com/GPX/1/1" xmlns:xsi="http://www.w3.org/2001/XMLSchema-instance" xsi:schemaLocation="http://www.topografix.com/GPX/1/1 http://www.topografix.com/GPX/1/1/gpx.xsd" version="1.1" creator="VisuGPX - https://www.visugpx.com">
  <metadata>
    <name>rando-la-Liberté</name>
    <desc><![CDATA[ballade du dimanche autour de mon quartier. Une boucle au large de la voie ferrée, dans le quartier cheminot ancien d'abord, puis dans le quartier Zola, et enfin dans une partie  de La Liberté.]]></desc>
  </metadata>
  <trk>
    <name><![CDATA[2021-12-05_143929]]></name>
    <extensions>
      <line xmlns="http://www.topografix.com/GPX/gpx_style/0/2">
        <color>0000FF</color>
        <width>4</width>
      </line>
    </extensions>
    <trkseg>
      <trkpt lat="46.66576" lon="-1.44022">
        <ele>48.2</ele>
        <time>2021-12-05T13:39:29.000Z</time>
      </trkpt>
      <trkpt lat="46.66576" lon="-1.44022">
        <ele>48.2</ele>
        <time>2021-12-05T13:39:30.000Z</time>
      </trkpt>
      <trkpt lat="46.66576" lon="-1.44022">
        <ele>48.3</ele>
        <time>2021-12-05T13:39:33.000Z</time>
      </trkpt>
      <trkpt lat="46.66577" lon="-1.44008">
        <ele>48.1</ele>
        <time>2021-12-05T13:39:42.000Z</time>
      </trkpt>
      <trkpt lat="46.66585" lon="-1.44">
        <ele>47.2</ele>
        <time>2021-12-05T13:39:53.000Z</time>
      </trkpt>
      <trkpt lat="46.66592" lon="-1.43991">
        <ele>48.1</ele>
        <time>2021-12-05T13:40:02.000Z</time>
      </trkpt>
      <trkpt lat="46.66596" lon="-1.43978">
        <ele>47.8</ele>
        <time>2021-12-05T13:40:11.000Z</time>
      </trkpt>
      <trkpt lat="46.66595" lon="-1.43964">
        <ele>47.5</ele>
        <time>2021-12-05T13:40:18.000Z</time>
      </trkpt>
      <trkpt lat="46.66593" lon="-1.4395">
        <ele>47.7</ele>
        <time>2021-12-05T13:40:26.000Z</time>
      </trkpt>
      <trkpt lat="46.66592" lon="-1.43936">
        <ele>47.9</ele>
        <time>2021-12-05T13:40:35.000Z</time>
      </trkpt>
      <trkpt lat="46.66589" lon="-1.43923">
        <ele>47.8</ele>
        <time>2021-12-05T13:40:43.000Z</time>
      </trkpt>
      <trkpt lat="46.66586" lon="-1.4391">
        <ele>47.4</ele>
        <time>2021-12-05T13:40:52.000Z</time>
      </trkpt>
      <trkpt lat="46.66587" lon="-1.43897">
        <ele>47.2</ele>
        <time>2021-12-05T13:41:00.000Z</time>
      </trkpt>
      <trkpt lat="46.66587" lon="-1.43883">
        <ele>46.9</ele>
        <time>2021-12-05T13:41:09.000Z</time>
      </trkpt>
      <trkpt lat="46.66585" lon="-1.43868">
        <ele>47.3</ele>
        <time>2021-12-05T13:41:17.000Z</time>
      </trkpt>
      <trkpt lat="46.66583" lon="-1.43855">
        <ele>47.3</ele>
        <time>2021-12-05T13:41:24.000Z</time>
      </trkpt>
      <trkpt lat="46.66579" lon="-1.43843">
        <ele>47.1</ele>
        <time>2021-12-05T13:41:31.000Z</time>
      </trkpt>
      <trkpt lat="46.66583" lon="-1.43831">
        <ele>47</ele>
        <time>2021-12-05T13:41:44.000Z</time>
      </trkpt>
      <trkpt lat="46.6659" lon="-1.43823">
        <ele>47.9</ele>
        <time>2021-12-05T13:41:52.000Z</time>
      </trkpt>
      <trkpt lat="46.66598" lon="-1.43812">
        <ele>46.5</ele>
        <time>2021-12-05T13:42:03.000Z</time>
      </trkpt>
      <trkpt lat="46.66606" lon="-1.43805">
        <ele>47.2</ele>
        <time>2021-12-05T13:42:11.000Z</time>
      </trkpt>
      <trkpt lat="46.66615" lon="-1.43801">
        <ele>47.6</ele>
        <time>2021-12-05T13:42:17.000Z</time>
      </trkpt>
      <trkpt lat="46.66622" lon="-1.4379">
        <ele>48.6</ele>
        <time>2021-12-05T13:42:25.000Z</time>
      </trkpt>
      <trkpt lat="46.66626" lon="-1.43783">
        <ele>48.4</ele>
        <time>2021-12-05T13:42:32.000Z</time>
      </trkpt>
      <trkpt lat="46.66626" lon="-1.43783">
        <ele>48.4</ele>
        <time>2021-12-05T13:42:33.000Z</time>
      </trkpt>
      <trkpt lat="46.66632" lon="-1.43779">
        <ele>48.2</ele>
        <time>2021-12-05T13:42:49.000Z</time>
      </trkpt>
      <trkpt lat="46.66632" lon="-1.43779">
        <ele>48.1</ele>
        <time>2021-12-05T13:42:50.000Z</time>
      </trkpt>
      <trkpt lat="46.66633" lon="-1.43778">
        <ele>48.2</ele>
        <time>2021-12-05T13:42:53.000Z</time>
      </trkpt>
      <trkpt lat="46.66633" lon="-1.43777">
        <ele>48.1</ele>
        <time>2021-12-05T13:42:54.000Z</time>
      </trkpt>
      <trkpt lat="46.66636" lon="-1.43763">
        <ele>48.4</ele>
        <time>2021-12-05T13:42:57.000Z</time>
      </trkpt>
      <trkpt lat="46.66641" lon="-1.43757">
        <ele>48.7</ele>
        <time>2021-12-05T13:43:08.000Z</time>
      </trkpt>
      <trkpt lat="46.66642" lon="-1.43757">
        <ele>48.9</ele>
        <time>2021-12-05T13:43:09.000Z</time>
      </trkpt>
      <trkpt lat="46.66649" lon="-1.43749">
        <ele>48.6</ele>
        <time>2021-12-05T13:43:24.000Z</time>
      </trkpt>
      <trkpt lat="46.66661" lon="-1.43748">
        <ele>48.5</ele>
        <time>2021-12-05T13:43:27.000Z</time>
      </trkpt>
      <trkpt lat="46.6667" lon="-1.43743">
        <ele>49.3</ele>
        <time>2021-12-05T13:43:29.000Z</time>
      </trkpt>
      <trkpt lat="46.66675" lon="-1.43742">
        <ele>50.3</ele>
        <time>2021-12-05T13:43:40.000Z</time>
      </trkpt>
      <trkpt lat="46.66675" lon="-1.43741">
        <ele>50.1</ele>
        <time>2021-12-05T13:43:41.000Z</time>
      </trkpt>
      <trkpt lat="46.66685" lon="-1.43739">
        <ele>49.5</ele>
        <time>2021-12-05T13:43:53.000Z</time>
      </trkpt>
      <trkpt lat="46.66694" lon="-1.43731">
        <ele>49.5</ele>
        <time>2021-12-05T13:44:00.000Z</time>
      </trkpt>
      <trkpt lat="46.66701" lon="-1.43718">
        <ele>51</ele>
        <time>2021-12-05T13:44:02.000Z</time>
      </trkpt>
      <trkpt lat="46.66711" lon="-1.43714">
        <ele>51.7</ele>
        <time>2021-12-05T13:44:04.000Z</time>
      </trkpt>
      <trkpt lat="46.66724" lon="-1.4371">
        <ele>51.9</ele>
        <time>2021-12-05T13:44:07.000Z</time>
      </trkpt>
      <trkpt lat="46.66732" lon="-1.43703">
        <ele>51.9</ele>
        <time>2021-12-05T13:44:12.000Z</time>
      </trkpt>
      <trkpt lat="46.66736" lon="-1.43691">
        <ele>52</ele>
        <time>2021-12-05T13:44:18.000Z</time>
      </trkpt>
      <trkpt lat="46.6674" lon="-1.43678">
        <ele>51.8</ele>
        <time>2021-12-05T13:44:23.000Z</time>
      </trkpt>
      <trkpt lat="46.66742" lon="-1.43666">
        <ele>51.8</ele>
        <time>2021-12-05T13:44:30.000Z</time>
      </trkpt>
      <trkpt lat="46.66741" lon="-1.43652">
        <ele>51.4</ele>
        <time>2021-12-05T13:44:38.000Z</time>
      </trkpt>
      <trkpt lat="46.6674" lon="-1.43637">
        <ele>51.9</ele>
        <time>2021-12-05T13:44:46.000Z</time>
      </trkpt>
      <trkpt lat="46.66746" lon="-1.43631">
        <ele>51.6</ele>
        <time>2021-12-05T13:44:57.000Z</time>
      </trkpt>
      <trkpt lat="46.66746" lon="-1.4363">
        <ele>51.8</ele>
        <time>2021-12-05T13:44:58.000Z</time>
      </trkpt>
      <trkpt lat="46.66756" lon="-1.4363">
        <ele>51.6</ele>
        <time>2021-12-05T13:45:12.000Z</time>
      </trkpt>
      <trkpt lat="46.66765" lon="-1.43632">
        <ele>51.2</ele>
        <time>2021-12-05T13:45:19.000Z</time>
      </trkpt>
      <trkpt lat="46.66774" lon="-1.43636">
        <ele>51.3</ele>
        <time>2021-12-05T13:45:29.000Z</time>
      </trkpt>
      <trkpt lat="46.66784" lon="-1.43639">
        <ele>51.4</ele>
        <time>2021-12-05T13:45:35.000Z</time>
      </trkpt>
      <trkpt lat="46.66794" lon="-1.43643">
        <ele>50.8</ele>
        <time>2021-12-05T13:45:41.000Z</time>
      </trkpt>
      <trkpt lat="46.66801" lon="-1.43651">
        <ele>51.1</ele>
        <time>2021-12-05T13:45:48.000Z</time>
      </trkpt>
      <trkpt lat="46.66803" lon="-1.43637">
        <ele>49.4</ele>
        <time>2021-12-05T13:46:00.000Z</time>
      </trkpt>
      <trkpt lat="46.66806" lon="-1.43624">
        <ele>48.9</ele>
        <time>2021-12-05T13:46:07.000Z</time>
      </trkpt>
      <trkpt lat="46.66813" lon="-1.43616">
        <ele>49</ele>
        <time>2021-12-05T13:46:12.000Z</time>
      </trkpt>
      <trkpt lat="46.6682" lon="-1.43605">
        <ele>49.1</ele>
        <time>2021-12-05T13:46:18.000Z</time>
      </trkpt>
      <trkpt lat="46.66825" lon="-1.43593">
        <ele>49.1</ele>
        <time>2021-12-05T13:46:23.000Z</time>
      </trkpt>
      <trkpt lat="46.66828" lon="-1.43581">
        <ele>48.6</ele>
        <time>2021-12-05T13:46:34.000Z</time>
      </trkpt>
      <trkpt lat="46.66832" lon="-1.43568">
        <ele>49.2</ele>
        <time>2021-12-05T13:46:40.000Z</time>
      </trkpt>
      <trkpt lat="46.66836" lon="-1.43554">
        <ele>49.3</ele>
        <time>2021-12-05T13:46:45.000Z</time>
      </trkpt>
      <trkpt lat="46.66838" lon="-1.43541">
        <ele>49.3</ele>
        <time>2021-12-05T13:46:51.000Z</time>
      </trkpt>
      <trkpt lat="46.66839" lon="-1.43527">
        <ele>49.1</ele>
        <time>2021-12-05T13:46:56.000Z</time>
      </trkpt>
      <trkpt lat="46.66844" lon="-1.43515">
        <ele>49.2</ele>
        <time>2021-12-05T13:47:05.000Z</time>
      </trkpt>
      <trkpt lat="46.66845" lon="-1.435">
        <ele>49.6</ele>
        <time>2021-12-05T13:47:12.000Z</time>
      </trkpt>
      <trkpt lat="46.66847" lon="-1.43486">
        <ele>49.3</ele>
        <time>2021-12-05T13:47:18.000Z</time>
      </trkpt>
      <trkpt lat="46.66853" lon="-1.43475">
        <ele>49.3</ele>
        <time>2021-12-05T13:47:27.000Z</time>
      </trkpt>
      <trkpt lat="46.66855" lon="-1.43462">
        <ele>49.7</ele>
        <time>2021-12-05T13:47:41.000Z</time>
      </trkpt>
      <trkpt lat="46.66847" lon="-1.43453">
        <ele>49.8</ele>
        <time>2021-12-05T13:47:48.000Z</time>
      </trkpt>
      <trkpt lat="46.66843" lon="-1.43442">
        <ele>49.8</ele>
        <time>2021-12-05T13:47:54.000Z</time>
      </trkpt>
      <trkpt lat="46.66839" lon="-1.4343">
        <ele>49.4</ele>
        <time>2021-12-05T13:48:02.000Z</time>
      </trkpt>
      <trkpt lat="46.66834" lon="-1.43418">
        <ele>50.1</ele>
        <time>2021-12-05T13:48:09.000Z</time>
      </trkpt>
      <trkpt lat="46.66827" lon="-1.43408">
        <ele>49.7</ele>
        <time>2021-12-05T13:48:17.000Z</time>
      </trkpt>
      <trkpt lat="46.66819" lon="-1.43399">
        <ele>49.6</ele>
        <time>2021-12-05T13:48:24.000Z</time>
      </trkpt>
      <trkpt lat="46.66813" lon="-1.43389">
        <ele>48.8</ele>
        <time>2021-12-05T13:48:31.000Z</time>
      </trkpt>
      <trkpt lat="46.66804" lon="-1.43382">
        <ele>48.4</ele>
        <time>2021-12-05T13:48:39.000Z</time>
      </trkpt>
      <trkpt lat="46.66797" lon="-1.43373">
        <ele>48.5</ele>
        <time>2021-12-05T13:48:46.000Z</time>
      </trkpt>
      <trkpt lat="46.6679" lon="-1.43365">
        <ele>48.6</ele>
        <time>2021-12-05T13:48:54.000Z</time>
      </trkpt>
      <trkpt lat="46.66785" lon="-1.43352">
        <ele>47.9</ele>
        <time>2021-12-05T13:49:01.000Z</time>
      </trkpt>
      <trkpt lat="46.66779" lon="-1.43341">
        <ele>47.5</ele>
        <time>2021-12-05T13:49:09.000Z</time>
      </trkpt>
      <trkpt lat="46.66774" lon="-1.4333">
        <ele>48</ele>
        <time>2021-12-05T13:49:17.000Z</time>
      </trkpt>
      <trkpt lat="46.66768" lon="-1.43318">
        <ele>47.6</ele>
        <time>2021-12-05T13:49:26.000Z</time>
      </trkpt>
      <trkpt lat="46.66761" lon="-1.43309">
        <ele>46.9</ele>
        <time>2021-12-05T13:49:34.000Z</time>
      </trkpt>
      <trkpt lat="46.66754" lon="-1.43299">
        <ele>46.3</ele>
        <time>2021-12-05T13:49:41.000Z</time>
      </trkpt>
      <trkpt lat="46.66747" lon="-1.4329">
        <ele>46.4</ele>
        <time>2021-12-05T13:49:47.000Z</time>
      </trkpt>
      <trkpt lat="46.6674" lon="-1.43279">
        <ele>46.2</ele>
        <time>2021-12-05T13:49:55.000Z</time>
      </trkpt>
      <trkpt lat="46.66735" lon="-1.43265">
        <ele>46.1</ele>
        <time>2021-12-05T13:50:02.000Z</time>
      </trkpt>
      <trkpt lat="46.6673" lon="-1.43253">
        <ele>45.9</ele>
        <time>2021-12-05T13:50:09.000Z</time>
      </trkpt>
      <trkpt lat="46.66721" lon="-1.43247">
        <ele>45.5</ele>
        <time>2021-12-05T13:50:16.000Z</time>
      </trkpt>
      <trkpt lat="46.66712" lon="-1.4324">
        <ele>45.2</ele>
        <time>2021-12-05T13:50:21.000Z</time>
      </trkpt>
      <trkpt lat="46.66703" lon="-1.4324">
        <ele>45.4</ele>
        <time>2021-12-05T13:50:28.000Z</time>
      </trkpt>
      <trkpt lat="46.66694" lon="-1.43239">
        <ele>43.1</ele>
        <time>2021-12-05T13:50:37.000Z</time>
      </trkpt>
      <trkpt lat="46.66684" lon="-1.43238">
        <ele>43.6</ele>
        <time>2021-12-05T13:50:44.000Z</time>
      </trkpt>
      <trkpt lat="46.66675" lon="-1.43236">
        <ele>42.8</ele>
        <time>2021-12-05T13:50:51.000Z</time>
      </trkpt>
      <trkpt lat="46.66665" lon="-1.43236">
        <ele>42.6</ele>
        <time>2021-12-05T13:50:58.000Z</time>
      </trkpt>
      <trkpt lat="46.66656" lon="-1.43237">
        <ele>43.3</ele>
        <time>2021-12-05T13:51:05.000Z</time>
      </trkpt>
      <trkpt lat="46.66647" lon="-1.4324">
        <ele>44</ele>
        <time>2021-12-05T13:51:12.000Z</time>
      </trkpt>
      <trkpt lat="46.66637" lon="-1.43242">
        <ele>43.5</ele>
        <time>2021-12-05T13:51:18.000Z</time>
      </trkpt>
      <trkpt lat="46.66628" lon="-1.43244">
        <ele>43.6</ele>
        <time>2021-12-05T13:51:27.000Z</time>
      </trkpt>
      <trkpt lat="46.66618" lon="-1.43246">
        <ele>43.9</ele>
        <time>2021-12-05T13:51:34.000Z</time>
      </trkpt>
      <trkpt lat="46.66608" lon="-1.43248">
        <ele>43.5</ele>
        <time>2021-12-05T13:51:41.000Z</time>
      </trkpt>
      <trkpt lat="46.66598" lon="-1.4325">
        <ele>43.9</ele>
        <time>2021-12-05T13:51:48.000Z</time>
      </trkpt>
      <trkpt lat="46.66589" lon="-1.43252">
        <ele>43.7</ele>
        <time>2021-12-05T13:51:54.000Z</time>
      </trkpt>
      <trkpt lat="46.66581" lon="-1.43257">
        <ele>43.2</ele>
        <time>2021-12-05T13:51:59.000Z</time>
      </trkpt>
      <trkpt lat="46.66572" lon="-1.43259">
        <ele>41.7</ele>
        <time>2021-12-05T13:52:06.000Z</time>
      </trkpt>
      <trkpt lat="46.66562" lon="-1.43259">
        <ele>41.5</ele>
        <time>2021-12-05T13:52:14.000Z</time>
      </trkpt>
      <trkpt lat="46.66553" lon="-1.4326">
        <ele>40.6</ele>
        <time>2021-12-05T13:52:25.000Z</time>
      </trkpt>
      <trkpt lat="46.66543" lon="-1.43262">
        <ele>39.4</ele>
        <time>2021-12-05T13:52:33.000Z</time>
      </trkpt>
      <trkpt lat="46.66534" lon="-1.43264">
        <ele>37.6</ele>
        <time>2021-12-05T13:52:41.000Z</time>
      </trkpt>
      <trkpt lat="46.66525" lon="-1.43269">
        <ele>38</ele>
        <time>2021-12-05T13:52:48.000Z</time>
      </trkpt>
      <trkpt lat="46.66516" lon="-1.43273">
        <ele>37.2</ele>
        <time>2021-12-05T13:52:55.000Z</time>
      </trkpt>
      <trkpt lat="46.66507" lon="-1.43276">
        <ele>36.4</ele>
        <time>2021-12-05T13:53:02.000Z</time>
      </trkpt>
      <trkpt lat="46.665" lon="-1.43285">
        <ele>35.6</ele>
        <time>2021-12-05T13:53:12.000Z</time>
      </trkpt>
      <trkpt lat="46.665" lon="-1.43299">
        <ele>35.9</ele>
        <time>2021-12-05T13:53:20.000Z</time>
      </trkpt>
      <trkpt lat="46.66501" lon="-1.43313">
        <ele>37.2</ele>
        <time>2021-12-05T13:53:31.000Z</time>
      </trkpt>
      <trkpt lat="46.66504" lon="-1.43326">
        <ele>37</ele>
        <time>2021-12-05T13:53:40.000Z</time>
      </trkpt>
      <trkpt lat="46.66508" lon="-1.43339">
        <ele>37.1</ele>
        <time>2021-12-05T13:53:47.000Z</time>
      </trkpt>
      <trkpt lat="46.66513" lon="-1.43352">
        <ele>37.8</ele>
        <time>2021-12-05T13:53:56.000Z</time>
      </trkpt>
      <trkpt lat="46.66516" lon="-1.43365">
        <ele>37.7</ele>
        <time>2021-12-05T13:54:05.000Z</time>
      </trkpt>
      <trkpt lat="46.66517" lon="-1.4338">
        <ele>38.5</ele>
        <time>2021-12-05T13:54:13.000Z</time>
      </trkpt>
      <trkpt lat="46.66517" lon="-1.43395">
        <ele>37.8</ele>
        <time>2021-12-05T13:54:21.000Z</time>
      </trkpt>
      <trkpt lat="46.66517" lon="-1.43408">
        <ele>37.9</ele>
        <time>2021-12-05T13:54:28.000Z</time>
      </trkpt>
      <trkpt lat="46.6652" lon="-1.43422">
        <ele>38</ele>
        <time>2021-12-05T13:54:35.000Z</time>
      </trkpt>
      <trkpt lat="46.6652" lon="-1.4343">
        <ele>39.1</ele>
        <time>2021-12-05T13:54:44.000Z</time>
      </trkpt>
      <trkpt lat="46.6652" lon="-1.4343">
        <ele>39.7</ele>
        <time>2021-12-05T13:54:48.000Z</time>
      </trkpt>
      <trkpt lat="46.66513" lon="-1.43442">
        <ele>39.2</ele>
        <time>2021-12-05T13:54:57.000Z</time>
      </trkpt>
      <trkpt lat="46.66505" lon="-1.43449">
        <ele>40.1</ele>
        <time>2021-12-05T13:55:07.000Z</time>
      </trkpt>
      <trkpt lat="46.66496" lon="-1.43457">
        <ele>40.5</ele>
        <time>2021-12-05T13:55:16.000Z</time>
      </trkpt>
      <trkpt lat="46.66489" lon="-1.43466">
        <ele>40.9</ele>
        <time>2021-12-05T13:55:22.000Z</time>
      </trkpt>
      <trkpt lat="46.66481" lon="-1.43475">
        <ele>41.2</ele>
        <time>2021-12-05T13:55:28.000Z</time>
      </trkpt>
      <trkpt lat="46.66474" lon="-1.43484">
        <ele>41.3</ele>
        <time>2021-12-05T13:55:34.000Z</time>
      </trkpt>
      <trkpt lat="46.66467" lon="-1.43492">
        <ele>42.5</ele>
        <time>2021-12-05T13:55:42.000Z</time>
      </trkpt>
      <trkpt lat="46.66462" lon="-1.43495">
        <ele>42.5</ele>
        <time>2021-12-05T13:55:50.000Z</time>
      </trkpt>
      <trkpt lat="46.66461" lon="-1.43495">
        <ele>42.9</ele>
        <time>2021-12-05T13:55:53.000Z</time>
      </trkpt>
      <trkpt lat="46.66461" lon="-1.43495">
        <ele>42.9</ele>
        <time>2021-12-05T13:55:54.000Z</time>
      </trkpt>
      <trkpt lat="46.66461" lon="-1.43495">
        <ele>43</ele>
        <time>2021-12-05T13:55:56.000Z</time>
      </trkpt>
      <trkpt lat="46.66461" lon="-1.43498">
        <ele>42.6</ele>
        <time>2021-12-05T13:56:01.000Z</time>
      </trkpt>
      <trkpt lat="46.66461" lon="-1.43499">
        <ele>42.7</ele>
        <time>2021-12-05T13:56:12.000Z</time>
      </trkpt>
      <trkpt lat="46.66451" lon="-1.43505">
        <ele>42.9</ele>
        <time>2021-12-05T13:56:20.000Z</time>
      </trkpt>
      <trkpt lat="46.66444" lon="-1.43512">
        <ele>42.1</ele>
        <time>2021-12-05T13:56:27.000Z</time>
      </trkpt>
      <trkpt lat="46.66436" lon="-1.4352">
        <ele>44.1</ele>
        <time>2021-12-05T13:56:34.000Z</time>
      </trkpt>
      <trkpt lat="46.66427" lon="-1.43527">
        <ele>44.7</ele>
        <time>2021-12-05T13:56:42.000Z</time>
      </trkpt>
      <trkpt lat="46.66419" lon="-1.43536">
        <ele>44.2</ele>
        <time>2021-12-05T13:56:49.000Z</time>
      </trkpt>
      <trkpt lat="46.66411" lon="-1.43544">
        <ele>43.6</ele>
        <time>2021-12-05T13:56:56.000Z</time>
      </trkpt>
      <trkpt lat="46.66403" lon="-1.43552">
        <ele>44.1</ele>
        <time>2021-12-05T13:57:02.000Z</time>
      </trkpt>
      <trkpt lat="46.66393" lon="-1.43558">
        <ele>44.3</ele>
        <time>2021-12-05T13:57:10.000Z</time>
      </trkpt>
      <trkpt lat="46.66385" lon="-1.43564">
        <ele>45.7</ele>
        <time>2021-12-05T13:57:18.000Z</time>
      </trkpt>
      <trkpt lat="46.66375" lon="-1.43569">
        <ele>46</ele>
        <time>2021-12-05T13:57:27.000Z</time>
      </trkpt>
      <trkpt lat="46.66367" lon="-1.43578">
        <ele>45.4</ele>
        <time>2021-12-05T13:57:35.000Z</time>
      </trkpt>
      <trkpt lat="46.66359" lon="-1.43586">
        <ele>45.7</ele>
        <time>2021-12-05T13:57:42.000Z</time>
      </trkpt>
      <trkpt lat="46.66351" lon="-1.43592">
        <ele>47.2</ele>
        <time>2021-12-05T13:57:49.000Z</time>
      </trkpt>
      <trkpt lat="46.66344" lon="-1.43602">
        <ele>46.8</ele>
        <time>2021-12-05T13:57:56.000Z</time>
      </trkpt>
      <trkpt lat="46.6634" lon="-1.43614">
        <ele>46.7</ele>
        <time>2021-12-05T13:58:03.000Z</time>
      </trkpt>
      <trkpt lat="46.66343" lon="-1.43629">
        <ele>46</ele>
        <time>2021-12-05T13:58:11.000Z</time>
      </trkpt>
      <trkpt lat="46.66347" lon="-1.43642">
        <ele>45.2</ele>
        <time>2021-12-05T13:58:17.000Z</time>
      </trkpt>
      <trkpt lat="46.66351" lon="-1.43655">
        <ele>44.7</ele>
        <time>2021-12-05T13:58:26.000Z</time>
      </trkpt>
      <trkpt lat="46.66356" lon="-1.43667">
        <ele>45</ele>
        <time>2021-12-05T13:58:33.000Z</time>
      </trkpt>
      <trkpt lat="46.66356" lon="-1.43669">
        <ele>45.3</ele>
        <time>2021-12-05T13:58:38.000Z</time>
      </trkpt>
      <trkpt lat="46.66356" lon="-1.4367">
        <ele>44.5</ele>
        <time>2021-12-05T13:58:42.000Z</time>
      </trkpt>
      <trkpt lat="46.66355" lon="-1.43672">
        <ele>44.8</ele>
        <time>2021-12-05T13:58:46.000Z</time>
      </trkpt>
      <trkpt lat="46.66355" lon="-1.43672">
        <ele>44.6</ele>
        <time>2021-12-05T13:58:54.000Z</time>
      </trkpt>
      <trkpt lat="46.66359" lon="-1.43685">
        <ele>44.4</ele>
        <time>2021-12-05T13:59:03.000Z</time>
      </trkpt>
      <trkpt lat="46.66361" lon="-1.43698">
        <ele>44.1</ele>
        <time>2021-12-05T13:59:09.000Z</time>
      </trkpt>
      <trkpt lat="46.66361" lon="-1.43712">
        <ele>43.6</ele>
        <time>2021-12-05T13:59:17.000Z</time>
      </trkpt>
      <trkpt lat="46.66361" lon="-1.43726">
        <ele>43.7</ele>
        <time>2021-12-05T13:59:27.000Z</time>
      </trkpt>
      <trkpt lat="46.66361" lon="-1.4374">
        <ele>43.5</ele>
        <time>2021-12-05T13:59:35.000Z</time>
      </trkpt>
      <trkpt lat="46.66357" lon="-1.43752">
        <ele>43.5</ele>
        <time>2021-12-05T13:59:48.000Z</time>
      </trkpt>
      <trkpt lat="46.66348" lon="-1.43755">
        <ele>43.3</ele>
        <time>2021-12-05T13:59:55.000Z</time>
      </trkpt>
      <trkpt lat="46.66339" lon="-1.4376">
        <ele>43.6</ele>
        <time>2021-12-05T14:00:03.000Z</time>
      </trkpt>
      <trkpt lat="46.66331" lon="-1.43762">
        <ele>44.1</ele>
        <time>2021-12-05T14:00:16.000Z</time>
      </trkpt>
      <trkpt lat="46.66331" lon="-1.43762">
        <ele>43.7</ele>
        <time>2021-12-05T14:00:23.000Z</time>
      </trkpt>
      <trkpt lat="46.66331" lon="-1.43762">
        <ele>44.3</ele>
        <time>2021-12-05T14:00:26.000Z</time>
      </trkpt>
      <trkpt lat="46.6633" lon="-1.43762">
        <ele>44.3</ele>
        <time>2021-12-05T14:00:27.000Z</time>
      </trkpt>
      <trkpt lat="46.6633" lon="-1.43762">
        <ele>44.2</ele>
        <time>2021-12-05T14:00:33.000Z</time>
      </trkpt>
      <trkpt lat="46.66329" lon="-1.43762">
        <ele>44.2</ele>
        <time>2021-12-05T14:00:37.000Z</time>
      </trkpt>
      <trkpt lat="46.6633" lon="-1.43761">
        <ele>43.4</ele>
        <time>2021-12-05T14:00:46.000Z</time>
      </trkpt>
      <trkpt lat="46.6633" lon="-1.43761">
        <ele>43.5</ele>
        <time>2021-12-05T14:00:50.000Z</time>
      </trkpt>
      <trkpt lat="46.66331" lon="-1.4376">
        <ele>42.9</ele>
        <time>2021-12-05T14:00:56.000Z</time>
      </trkpt>
      <trkpt lat="46.66331" lon="-1.4376">
        <ele>43.6</ele>
        <time>2021-12-05T14:01:08.000Z</time>
      </trkpt>
      <trkpt lat="46.66331" lon="-1.4376">
        <ele>43.4</ele>
        <time>2021-12-05T14:01:10.000Z</time>
      </trkpt>
      <trkpt lat="46.66331" lon="-1.4376">
        <ele>42.7</ele>
        <time>2021-12-05T14:01:20.000Z</time>
      </trkpt>
      <trkpt lat="46.66331" lon="-1.4376">
        <ele>42.8</ele>
        <time>2021-12-05T14:01:21.000Z</time>
      </trkpt>
      <trkpt lat="46.66331" lon="-1.4376">
        <ele>42.8</ele>
        <time>2021-12-05T14:01:44.000Z</time>
      </trkpt>
      <trkpt lat="46.6633" lon="-1.4376">
        <ele>42.1</ele>
        <time>2021-12-05T14:01:47.000Z</time>
      </trkpt>
      <trkpt lat="46.6633" lon="-1.4376">
        <ele>42</ele>
        <time>2021-12-05T14:01:48.000Z</time>
      </trkpt>
      <trkpt lat="46.6633" lon="-1.4376">
        <ele>42.1</ele>
        <time>2021-12-05T14:01:49.000Z</time>
      </trkpt>
      <trkpt lat="46.6633" lon="-1.4376">
        <ele>43</ele>
        <time>2021-12-05T14:01:57.000Z</time>
      </trkpt>
      <trkpt lat="46.66329" lon="-1.43759">
        <ele>43.7</ele>
        <time>2021-12-05T14:02:00.000Z</time>
      </trkpt>
      <trkpt lat="46.6633" lon="-1.43759">
        <ele>43.9</ele>
        <time>2021-12-05T14:02:02.000Z</time>
      </trkpt>
      <trkpt lat="46.6633" lon="-1.43759">
        <ele>43.7</ele>
        <time>2021-12-05T14:02:03.000Z</time>
      </trkpt>
      <trkpt lat="46.6633" lon="-1.43759">
        <ele>43.4</ele>
        <time>2021-12-05T14:02:04.000Z</time>
      </trkpt>
      <trkpt lat="46.6633" lon="-1.43759">
        <ele>43.3</ele>
        <time>2021-12-05T14:02:08.000Z</time>
      </trkpt>
      <trkpt lat="46.6633" lon="-1.43759">
        <ele>42.4</ele>
        <time>2021-12-05T14:02:35.000Z</time>
      </trkpt>
      <trkpt lat="46.6633" lon="-1.43759">
        <ele>43</ele>
        <time>2021-12-05T14:02:39.000Z</time>
      </trkpt>
      <trkpt lat="46.66329" lon="-1.43759">
        <ele>43.7</ele>
        <time>2021-12-05T14:02:40.000Z</time>
      </trkpt>
      <trkpt lat="46.6633" lon="-1.43759">
        <ele>43.4</ele>
        <time>2021-12-05T14:02:42.000Z</time>
      </trkpt>
      <trkpt lat="46.66329" lon="-1.43759">
        <ele>43</ele>
        <time>2021-12-05T14:02:45.000Z</time>
      </trkpt>
      <trkpt lat="46.66329" lon="-1.43759">
        <ele>42.3</ele>
        <time>2021-12-05T14:02:47.000Z</time>
      </trkpt>
      <trkpt lat="46.66329" lon="-1.43759">
        <ele>42.9</ele>
        <time>2021-12-05T14:03:03.000Z</time>
      </trkpt>
      <trkpt lat="46.66328" lon="-1.43757">
        <ele>43.1</ele>
        <time>2021-12-05T14:03:15.000Z</time>
      </trkpt>
      <trkpt lat="46.66328" lon="-1.43757">
        <ele>42.3</ele>
        <time>2021-12-05T14:03:17.000Z</time>
      </trkpt>
      <trkpt lat="46.66328" lon="-1.43757">
        <ele>42</ele>
        <time>2021-12-05T14:03:18.000Z</time>
      </trkpt>
      <trkpt lat="46.66328" lon="-1.43756">
        <ele>42.5</ele>
        <time>2021-12-05T14:03:41.000Z</time>
      </trkpt>
      <trkpt lat="46.66328" lon="-1.43756">
        <ele>42.8</ele>
        <time>2021-12-05T14:03:42.000Z</time>
      </trkpt>
      <trkpt lat="46.66328" lon="-1.43756">
        <ele>43.1</ele>
        <time>2021-12-05T14:04:18.000Z</time>
      </trkpt>
      <trkpt lat="46.66328" lon="-1.43756">
        <ele>43.2</ele>
        <time>2021-12-05T14:04:19.000Z</time>
      </trkpt>
      <trkpt lat="46.66329" lon="-1.43756">
        <ele>43.2</ele>
        <time>2021-12-05T14:04:45.000Z</time>
      </trkpt>
      <trkpt lat="46.66329" lon="-1.43756">
        <ele>43.2</ele>
        <time>2021-12-05T14:04:46.000Z</time>
      </trkpt>
      <trkpt lat="46.66328" lon="-1.43756">
        <ele>43.1</ele>
        <time>2021-12-05T14:04:49.000Z</time>
      </trkpt>
      <trkpt lat="46.66329" lon="-1.43756">
        <ele>42.9</ele>
        <time>2021-12-05T14:04:52.000Z</time>
      </trkpt>
      <trkpt lat="46.66329" lon="-1.43756">
        <ele>42.8</ele>
        <time>2021-12-05T14:04:53.000Z</time>
      </trkpt>
      <trkpt lat="46.66329" lon="-1.43756">
        <ele>42.4</ele>
        <time>2021-12-05T14:04:57.000Z</time>
      </trkpt>
      <trkpt lat="46.66329" lon="-1.43756">
        <ele>42.5</ele>
        <time>2021-12-05T14:04:59.000Z</time>
      </trkpt>
      <trkpt lat="46.66329" lon="-1.43755">
        <ele>42.3</ele>
        <time>2021-12-05T14:05:00.000Z</time>
      </trkpt>
      <trkpt lat="46.66328" lon="-1.43755">
        <ele>42.9</ele>
        <time>2021-12-05T14:05:31.000Z</time>
      </trkpt>
      <trkpt lat="46.66328" lon="-1.43755">
        <ele>43.2</ele>
        <time>2021-12-05T14:05:32.000Z</time>
      </trkpt>
      <trkpt lat="46.66328" lon="-1.43755">
        <ele>43</ele>
        <time>2021-12-05T14:05:50.000Z</time>
      </trkpt>
      <trkpt lat="46.66328" lon="-1.43757">
        <ele>42.8</ele>
        <time>2021-12-05T14:05:55.000Z</time>
      </trkpt>
      <trkpt lat="46.66328" lon="-1.43756">
        <ele>42.4</ele>
        <time>2021-12-05T14:06:04.000Z</time>
      </trkpt>
      <trkpt lat="46.66318" lon="-1.4376">
        <ele>42.6</ele>
        <time>2021-12-05T14:06:18.000Z</time>
      </trkpt>
      <trkpt lat="46.66309" lon="-1.43766">
        <ele>42.9</ele>
        <time>2021-12-05T14:06:27.000Z</time>
      </trkpt>
      <trkpt lat="46.663" lon="-1.4377">
        <ele>43.8</ele>
        <time>2021-12-05T14:06:34.000Z</time>
      </trkpt>
      <trkpt lat="46.66291" lon="-1.43777">
        <ele>44.1</ele>
        <time>2021-12-05T14:06:42.000Z</time>
      </trkpt>
      <trkpt lat="46.66284" lon="-1.43786">
        <ele>43.3</ele>
        <time>2021-12-05T14:06:47.000Z</time>
      </trkpt>
      <trkpt lat="46.66277" lon="-1.43793">
        <ele>43.8</ele>
        <time>2021-12-05T14:06:53.000Z</time>
      </trkpt>
      <trkpt lat="46.66269" lon="-1.43802">
        <ele>44.7</ele>
        <time>2021-12-05T14:07:00.000Z</time>
      </trkpt>
      <trkpt lat="46.66261" lon="-1.4381">
        <ele>44.2</ele>
        <time>2021-12-05T14:07:07.000Z</time>
      </trkpt>
      <trkpt lat="46.66253" lon="-1.43819">
        <ele>45.2</ele>
        <time>2021-12-05T14:07:16.000Z</time>
      </trkpt>
      <trkpt lat="46.66246" lon="-1.43827">
        <ele>45.3</ele>
        <time>2021-12-05T14:07:23.000Z</time>
      </trkpt>
      <trkpt lat="46.66237" lon="-1.43834">
        <ele>45.1</ele>
        <time>2021-12-05T14:07:30.000Z</time>
      </trkpt>
      <trkpt lat="46.6623" lon="-1.43841">
        <ele>45.8</ele>
        <time>2021-12-05T14:07:37.000Z</time>
      </trkpt>
      <trkpt lat="46.66222" lon="-1.43848">
        <ele>46.2</ele>
        <time>2021-12-05T14:07:45.000Z</time>
      </trkpt>
      <trkpt lat="46.66214" lon="-1.43856">
        <ele>45.5</ele>
        <time>2021-12-05T14:07:52.000Z</time>
      </trkpt>
      <trkpt lat="46.66206" lon="-1.43864">
        <ele>45.9</ele>
        <time>2021-12-05T14:08:01.000Z</time>
      </trkpt>
      <trkpt lat="46.66197" lon="-1.43871">
        <ele>45.4</ele>
        <time>2021-12-05T14:08:08.000Z</time>
      </trkpt>
      <trkpt lat="46.66189" lon="-1.4388">
        <ele>45.3</ele>
        <time>2021-12-05T14:08:16.000Z</time>
      </trkpt>
      <trkpt lat="46.66181" lon="-1.43887">
        <ele>45.9</ele>
        <time>2021-12-05T14:08:23.000Z</time>
      </trkpt>
      <trkpt lat="46.66174" lon="-1.43896">
        <ele>46</ele>
        <time>2021-12-05T14:08:30.000Z</time>
      </trkpt>
      <trkpt lat="46.66166" lon="-1.43903">
        <ele>46.1</ele>
        <time>2021-12-05T14:08:36.000Z</time>
      </trkpt>
      <trkpt lat="46.66158" lon="-1.4391">
        <ele>45.9</ele>
        <time>2021-12-05T14:08:43.000Z</time>
      </trkpt>
      <trkpt lat="46.6615" lon="-1.43917">
        <ele>46.3</ele>
        <time>2021-12-05T14:08:50.000Z</time>
      </trkpt>
      <trkpt lat="46.66142" lon="-1.43924">
        <ele>45.9</ele>
        <time>2021-12-05T14:08:57.000Z</time>
      </trkpt>
      <trkpt lat="46.66135" lon="-1.43933">
        <ele>45.4</ele>
        <time>2021-12-05T14:09:03.000Z</time>
      </trkpt>
      <trkpt lat="46.66127" lon="-1.43941">
        <ele>45.9</ele>
        <time>2021-12-05T14:09:10.000Z</time>
      </trkpt>
      <trkpt lat="46.66119" lon="-1.4395">
        <ele>45.3</ele>
        <time>2021-12-05T14:09:17.000Z</time>
      </trkpt>
      <trkpt lat="46.6611" lon="-1.43956">
        <ele>45.6</ele>
        <time>2021-12-05T14:09:24.000Z</time>
      </trkpt>
      <trkpt lat="46.66104" lon="-1.43961">
        <ele>45.3</ele>
        <time>2021-12-05T14:09:33.000Z</time>
      </trkpt>
      <trkpt lat="46.66104" lon="-1.43961">
        <ele>45.4</ele>
        <time>2021-12-05T14:09:39.000Z</time>
      </trkpt>
      <trkpt lat="46.66104" lon="-1.43961">
        <ele>45.2</ele>
        <time>2021-12-05T14:09:40.000Z</time>
      </trkpt>
      <trkpt lat="46.66104" lon="-1.43961">
        <ele>45.1</ele>
        <time>2021-12-05T14:09:41.000Z</time>
      </trkpt>
      <trkpt lat="46.66095" lon="-1.43968">
        <ele>44.6</ele>
        <time>2021-12-05T14:09:49.000Z</time>
      </trkpt>
      <trkpt lat="46.66087" lon="-1.43976">
        <ele>44.7</ele>
        <time>2021-12-05T14:09:56.000Z</time>
      </trkpt>
      <trkpt lat="46.66079" lon="-1.43983">
        <ele>44.6</ele>
        <time>2021-12-05T14:10:04.000Z</time>
      </trkpt>
      <trkpt lat="46.66071" lon="-1.43992">
        <ele>44.4</ele>
        <time>2021-12-05T14:10:12.000Z</time>
      </trkpt>
      <trkpt lat="46.66063" lon="-1.43999">
        <ele>43.9</ele>
        <time>2021-12-05T14:10:19.000Z</time>
      </trkpt>
      <trkpt lat="46.66055" lon="-1.44007">
        <ele>43.6</ele>
        <time>2021-12-05T14:10:26.000Z</time>
      </trkpt>
      <trkpt lat="46.66048" lon="-1.44016">
        <ele>43.6</ele>
        <time>2021-12-05T14:10:33.000Z</time>
      </trkpt>
      <trkpt lat="46.6604" lon="-1.44025">
        <ele>43.5</ele>
        <time>2021-12-05T14:10:40.000Z</time>
      </trkpt>
      <trkpt lat="46.66033" lon="-1.44034">
        <ele>43.7</ele>
        <time>2021-12-05T14:10:47.000Z</time>
      </trkpt>
      <trkpt lat="46.66026" lon="-1.44043">
        <ele>43.6</ele>
        <time>2021-12-05T14:10:54.000Z</time>
      </trkpt>
      <trkpt lat="46.66019" lon="-1.44052">
        <ele>43.7</ele>
        <time>2021-12-05T14:11:01.000Z</time>
      </trkpt>
      <trkpt lat="46.66014" lon="-1.44064">
        <ele>43.5</ele>
        <time>2021-12-05T14:11:08.000Z</time>
      </trkpt>
      <trkpt lat="46.66015" lon="-1.44079">
        <ele>43.1</ele>
        <time>2021-12-05T14:11:16.000Z</time>
      </trkpt>
      <trkpt lat="46.6602" lon="-1.4409">
        <ele>44.2</ele>
        <time>2021-12-05T14:11:23.000Z</time>
      </trkpt>
      <trkpt lat="46.66026" lon="-1.44103">
        <ele>43.4</ele>
        <time>2021-12-05T14:11:31.000Z</time>
      </trkpt>
      <trkpt lat="46.66034" lon="-1.44111">
        <ele>43.5</ele>
        <time>2021-12-05T14:11:37.000Z</time>
      </trkpt>
      <trkpt lat="46.66042" lon="-1.44119">
        <ele>42.2</ele>
        <time>2021-12-05T14:11:43.000Z</time>
      </trkpt>
      <trkpt lat="46.66048" lon="-1.4413">
        <ele>44.6</ele>
        <time>2021-12-05T14:11:50.000Z</time>
      </trkpt>
      <trkpt lat="46.66055" lon="-1.44139">
        <ele>43.9</ele>
        <time>2021-12-05T14:11:57.000Z</time>
      </trkpt>
      <trkpt lat="46.66063" lon="-1.44147">
        <ele>43.8</ele>
        <time>2021-12-05T14:12:04.000Z</time>
      </trkpt>
      <trkpt lat="46.66069" lon="-1.44158">
        <ele>44.2</ele>
        <time>2021-12-05T14:12:11.000Z</time>
      </trkpt>
      <trkpt lat="46.66078" lon="-1.44166">
        <ele>44.4</ele>
        <time>2021-12-05T14:12:18.000Z</time>
      </trkpt>
      <trkpt lat="46.66086" lon="-1.44175">
        <ele>44.3</ele>
        <time>2021-12-05T14:12:25.000Z</time>
      </trkpt>
      <trkpt lat="46.66095" lon="-1.44183">
        <ele>45.1</ele>
        <time>2021-12-05T14:12:33.000Z</time>
      </trkpt>
      <trkpt lat="46.66102" lon="-1.44192">
        <ele>45.4</ele>
        <time>2021-12-05T14:12:40.000Z</time>
      </trkpt>
      <trkpt lat="46.66111" lon="-1.44198">
        <ele>44.9</ele>
        <time>2021-12-05T14:12:48.000Z</time>
      </trkpt>
      <trkpt lat="46.66119" lon="-1.44205">
        <ele>45.6</ele>
        <time>2021-12-05T14:13:00.000Z</time>
      </trkpt>
      <trkpt lat="46.66129" lon="-1.4421">
        <ele>45.5</ele>
        <time>2021-12-05T14:13:07.000Z</time>
      </trkpt>
      <trkpt lat="46.66138" lon="-1.44216">
        <ele>45.4</ele>
        <time>2021-12-05T14:13:15.000Z</time>
      </trkpt>
      <trkpt lat="46.66146" lon="-1.44221">
        <ele>45.8</ele>
        <time>2021-12-05T14:13:22.000Z</time>
      </trkpt>
      <trkpt lat="46.66155" lon="-1.44227">
        <ele>45</ele>
        <time>2021-12-05T14:13:29.000Z</time>
      </trkpt>
      <trkpt lat="46.66164" lon="-1.44233">
        <ele>45.3</ele>
        <time>2021-12-05T14:13:37.000Z</time>
      </trkpt>
      <trkpt lat="46.66173" lon="-1.4424">
        <ele>45.6</ele>
        <time>2021-12-05T14:13:44.000Z</time>
      </trkpt>
      <trkpt lat="46.66181" lon="-1.44245">
        <ele>45.8</ele>
        <time>2021-12-05T14:13:51.000Z</time>
      </trkpt>
      <trkpt lat="46.6619" lon="-1.4425">
        <ele>45.4</ele>
        <time>2021-12-05T14:13:58.000Z</time>
      </trkpt>
      <trkpt lat="46.66198" lon="-1.44256">
        <ele>45.9</ele>
        <time>2021-12-05T14:14:05.000Z</time>
      </trkpt>
      <trkpt lat="46.66207" lon="-1.44263">
        <ele>46</ele>
        <time>2021-12-05T14:14:12.000Z</time>
      </trkpt>
      <trkpt lat="46.66216" lon="-1.4427">
        <ele>46</ele>
        <time>2021-12-05T14:14:19.000Z</time>
      </trkpt>
      <trkpt lat="46.66225" lon="-1.44274">
        <ele>45.9</ele>
        <time>2021-12-05T14:14:26.000Z</time>
      </trkpt>
      <trkpt lat="46.66235" lon="-1.44279">
        <ele>45.2</ele>
        <time>2021-12-05T14:14:33.000Z</time>
      </trkpt>
      <trkpt lat="46.66243" lon="-1.44283">
        <ele>45.2</ele>
        <time>2021-12-05T14:14:39.000Z</time>
      </trkpt>
      <trkpt lat="46.66252" lon="-1.44291">
        <ele>43.7</ele>
        <time>2021-12-05T14:14:46.000Z</time>
      </trkpt>
      <trkpt lat="46.6626" lon="-1.44297">
        <ele>45.5</ele>
        <time>2021-12-05T14:14:53.000Z</time>
      </trkpt>
      <trkpt lat="46.66269" lon="-1.44302">
        <ele>44.5</ele>
        <time>2021-12-05T14:15:00.000Z</time>
      </trkpt>
      <trkpt lat="46.66278" lon="-1.44307">
        <ele>43.6</ele>
        <time>2021-12-05T14:15:07.000Z</time>
      </trkpt>
      <trkpt lat="46.66287" lon="-1.44306">
        <ele>43.8</ele>
        <time>2021-12-05T14:15:16.000Z</time>
      </trkpt>
      <trkpt lat="46.66297" lon="-1.44304">
        <ele>44.1</ele>
        <time>2021-12-05T14:15:26.000Z</time>
      </trkpt>
      <trkpt lat="46.66304" lon="-1.44297">
        <ele>43.5</ele>
        <time>2021-12-05T14:15:34.000Z</time>
      </trkpt>
      <trkpt lat="46.66309" lon="-1.44285">
        <ele>43.9</ele>
        <time>2021-12-05T14:15:40.000Z</time>
      </trkpt>
      <trkpt lat="46.66313" lon="-1.44272">
        <ele>44.5</ele>
        <time>2021-12-05T14:15:48.000Z</time>
      </trkpt>
      <trkpt lat="46.66315" lon="-1.44258">
        <ele>44.7</ele>
        <time>2021-12-05T14:15:56.000Z</time>
      </trkpt>
      <trkpt lat="46.6632" lon="-1.44246">
        <ele>43.9</ele>
        <time>2021-12-05T14:16:04.000Z</time>
      </trkpt>
      <trkpt lat="46.66324" lon="-1.44232">
        <ele>44.2</ele>
        <time>2021-12-05T14:16:12.000Z</time>
      </trkpt>
      <trkpt lat="46.66327" lon="-1.44218">
        <ele>44.9</ele>
        <time>2021-12-05T14:16:20.000Z</time>
      </trkpt>
      <trkpt lat="46.66329" lon="-1.44203">
        <ele>45.1</ele>
        <time>2021-12-05T14:16:28.000Z</time>
      </trkpt>
      <trkpt lat="46.66332" lon="-1.4419">
        <ele>44.6</ele>
        <time>2021-12-05T14:16:35.000Z</time>
      </trkpt>
      <trkpt lat="46.66335" lon="-1.44176">
        <ele>43.5</ele>
        <time>2021-12-05T14:16:43.000Z</time>
      </trkpt>
      <trkpt lat="46.66339" lon="-1.44164">
        <ele>44.3</ele>
        <time>2021-12-05T14:16:50.000Z</time>
      </trkpt>
      <trkpt lat="46.66341" lon="-1.4415">
        <ele>43.9</ele>
        <time>2021-12-05T14:16:57.000Z</time>
      </trkpt>
      <trkpt lat="46.66344" lon="-1.44136">
        <ele>44.4</ele>
        <time>2021-12-05T14:17:05.000Z</time>
      </trkpt>
      <trkpt lat="46.66348" lon="-1.44123">
        <ele>44.1</ele>
        <time>2021-12-05T14:17:13.000Z</time>
      </trkpt>
      <trkpt lat="46.66351" lon="-1.4411">
        <ele>44.1</ele>
        <time>2021-12-05T14:17:20.000Z</time>
      </trkpt>
      <trkpt lat="46.66357" lon="-1.44099">
        <ele>44.3</ele>
        <time>2021-12-05T14:17:28.000Z</time>
      </trkpt>
      <trkpt lat="46.66356" lon="-1.44085">
        <ele>43.3</ele>
        <time>2021-12-05T14:17:37.000Z</time>
      </trkpt>
      <trkpt lat="46.66357" lon="-1.44071">
        <ele>43.4</ele>
        <time>2021-12-05T14:17:45.000Z</time>
      </trkpt>
      <trkpt lat="46.6636" lon="-1.44058">
        <ele>43.5</ele>
        <time>2021-12-05T14:17:52.000Z</time>
      </trkpt>
      <trkpt lat="46.66364" lon="-1.44046">
        <ele>43.1</ele>
        <time>2021-12-05T14:18:01.000Z</time>
      </trkpt>
      <trkpt lat="46.6637" lon="-1.44036">
        <ele>43.2</ele>
        <time>2021-12-05T14:18:12.000Z</time>
      </trkpt>
      <trkpt lat="46.66378" lon="-1.44029">
        <ele>43.4</ele>
        <time>2021-12-05T14:18:24.000Z</time>
      </trkpt>
      <trkpt lat="46.66388" lon="-1.44033">
        <ele>43.1</ele>
        <time>2021-12-05T14:18:32.000Z</time>
      </trkpt>
      <trkpt lat="46.66397" lon="-1.44036">
        <ele>43.8</ele>
        <time>2021-12-05T14:18:39.000Z</time>
      </trkpt>
      <trkpt lat="46.66406" lon="-1.44043">
        <ele>44</ele>
        <time>2021-12-05T14:18:49.000Z</time>
      </trkpt>
      <trkpt lat="46.66415" lon="-1.44049">
        <ele>44.5</ele>
        <time>2021-12-05T14:18:57.000Z</time>
      </trkpt>
      <trkpt lat="46.66425" lon="-1.44054">
        <ele>43.7</ele>
        <time>2021-12-05T14:19:05.000Z</time>
      </trkpt>
      <trkpt lat="46.66435" lon="-1.44057">
        <ele>43.6</ele>
        <time>2021-12-05T14:19:11.000Z</time>
      </trkpt>
      <trkpt lat="46.66445" lon="-1.44062">
        <ele>44.2</ele>
        <time>2021-12-05T14:19:19.000Z</time>
      </trkpt>
      <trkpt lat="46.66454" lon="-1.44066">
        <ele>44.5</ele>
        <time>2021-12-05T14:19:25.000Z</time>
      </trkpt>
      <trkpt lat="46.66463" lon="-1.44072">
        <ele>43.4</ele>
        <time>2021-12-05T14:19:33.000Z</time>
      </trkpt>
      <trkpt lat="46.66473" lon="-1.44078">
        <ele>43.7</ele>
        <time>2021-12-05T14:19:40.000Z</time>
      </trkpt>
      <trkpt lat="46.66479" lon="-1.44088">
        <ele>43.7</ele>
        <time>2021-12-05T14:19:46.000Z</time>
      </trkpt>
      <trkpt lat="46.66486" lon="-1.44097">
        <ele>44.1</ele>
        <time>2021-12-05T14:19:53.000Z</time>
      </trkpt>
      <trkpt lat="46.66494" lon="-1.44104">
        <ele>43.7</ele>
        <time>2021-12-05T14:20:00.000Z</time>
      </trkpt>
      <trkpt lat="46.66504" lon="-1.44107">
        <ele>43.3</ele>
        <time>2021-12-05T14:20:07.000Z</time>
      </trkpt>
      <trkpt lat="46.66512" lon="-1.44112">
        <ele>43.7</ele>
        <time>2021-12-05T14:20:14.000Z</time>
      </trkpt>
      <trkpt lat="46.66521" lon="-1.44116">
        <ele>43</ele>
        <time>2021-12-05T14:20:22.000Z</time>
      </trkpt>
      <trkpt lat="46.66531" lon="-1.44119">
        <ele>42.9</ele>
        <time>2021-12-05T14:20:30.000Z</time>
      </trkpt>
      <trkpt lat="46.6654" lon="-1.44123">
        <ele>42.1</ele>
        <time>2021-12-05T14:20:36.000Z</time>
      </trkpt>
      <trkpt lat="46.66549" lon="-1.44126">
        <ele>41.6</ele>
        <time>2021-12-05T14:20:44.000Z</time>
      </trkpt>
      <trkpt lat="46.66558" lon="-1.44131">
        <ele>41</ele>
        <time>2021-12-05T14:20:51.000Z</time>
      </trkpt>
      <trkpt lat="46.66564" lon="-1.44119">
        <ele>41</ele>
        <time>2021-12-05T14:20:58.000Z</time>
      </trkpt>
      <trkpt lat="46.66568" lon="-1.44106">
        <ele>41.4</ele>
        <time>2021-12-05T14:21:05.000Z</time>
      </trkpt>
      <trkpt lat="46.66568" lon="-1.44098">
        <ele>41.1</ele>
        <time>2021-12-05T14:21:12.000Z</time>
      </trkpt>
      <trkpt lat="46.66568" lon="-1.44097">
        <ele>41.3</ele>
        <time>2021-12-05T14:21:13.000Z</time>
      </trkpt>
      <trkpt lat="46.66569" lon="-1.44094">
        <ele>41.8</ele>
        <time>2021-12-05T14:21:17.000Z</time>
      </trkpt>
      <trkpt lat="46.66569" lon="-1.44094">
        <ele>41.1</ele>
        <time>2021-12-05T14:21:20.000Z</time>
      </trkpt>
      <trkpt lat="46.66569" lon="-1.44094">
        <ele>41</ele>
        <time>2021-12-05T14:21:21.000Z</time>
      </trkpt>
      <trkpt lat="46.66569" lon="-1.44094">
        <ele>41</ele>
        <time>2021-12-05T14:21:21.000Z</time>
      </trkpt>
    </trkseg>
  </trk>
</gpx>